createdAt,value
2017-04-08T00:00:33.940Z,8.40
2017-04-08T00:01:33.289Z,8.30
2017-04-08T00:02:32.600Z,8.30
2017-04-08T00:03:31.899Z,8.30
2017-04-08T00:04:31.201Z,8.40
2017-04-08T00:05:30.594Z,8.30
2017-04-08T00:06:30.688Z,8.30
2017-04-08T00:07:29.999Z,8.30
2017-04-08T00:08:30.029Z,8.30
2017-04-08T00:09:30.071Z,8.30
2017-04-08T00:10:29.333Z,8.30
2017-04-08T00:11:28.749Z,8.30
2017-04-08T00:12:28.045Z,8.30
2017-04-08T00:13:27.414Z,8.30
2017-04-08T00:14:26.657Z,8.40
2017-04-08T00:15:25.956Z,8.30
2017-04-08T00:16:26.008Z,8.30
2017-04-08T00:17:25.279Z,8.30
2017-04-08T00:18:25.291Z,8.30
2017-04-08T00:19:24.554Z,8.30
2017-04-08T00:20:24.558Z,8.30
2017-04-08T00:21:23.826Z,8.30
2017-04-08T00:22:23.085Z,8.30
2017-04-08T00:23:22.364Z,8.30
2017-04-08T00:24:21.673Z,8.30
2017-04-08T00:25:20.912Z,8.30
2017-04-08T00:26:20.249Z,8.30
2017-04-08T00:27:19.521Z,8.30
2017-04-08T00:28:18.810Z,8.30
2017-04-08T00:29:18.830Z,8.30
2017-04-08T00:30:18.209Z,8.40
2017-04-08T00:31:18.248Z,8.30
2017-04-08T00:32:17.539Z,8.40
2017-04-08T00:33:16.902Z,8.30
2017-04-08T00:34:16.157Z,8.30
2017-04-08T00:35:15.441Z,8.30
2017-04-08T00:36:14.676Z,8.30
2017-04-08T00:37:13.907Z,8.30
2017-04-08T00:38:13.159Z,8.30
2017-04-08T00:39:12.409Z,8.30
2017-04-08T00:40:11.677Z,8.40
2017-04-08T00:41:10.908Z,8.40
2017-04-08T00:42:11.049Z,8.40
2017-04-08T00:43:10.334Z,8.40
2017-04-08T00:44:09.882Z,8.50
2017-04-08T00:45:09.209Z,8.40
2017-04-08T00:46:08.456Z,8.40
2017-04-08T00:47:07.718Z,8.40
2017-04-08T00:48:06.981Z,8.40
2017-04-08T00:49:06.222Z,8.40
2017-04-08T00:50:05.495Z,8.40
2017-04-08T00:51:04.821Z,8.40
2017-04-08T00:52:04.144Z,8.40
2017-04-08T00:53:03.426Z,8.40
2017-04-08T00:54:03.461Z,8.40
2017-04-08T00:55:02.736Z,8.40
2017-04-08T00:56:01.990Z,8.50
2017-04-08T00:57:01.214Z,8.40
2017-04-08T00:58:00.457Z,8.50
2017-04-08T00:58:59.714Z,8.50
2017-04-08T00:59:58.970Z,8.50
2017-04-08T01:01:04.274Z,8.50
2017-04-08T01:02:06.729Z,8.50
2017-04-08T01:03:05.982Z,8.50
2017-04-08T01:04:05.261Z,8.50
2017-04-08T01:05:04.586Z,8.50
2017-04-08T01:06:03.884Z,8.50
2017-04-08T01:07:03.201Z,8.50
2017-04-08T01:08:02.475Z,8.50
2017-04-08T01:09:01.726Z,8.50
2017-04-08T01:10:00.992Z,8.50
2017-04-08T01:11:01.049Z,8.50
2017-04-08T01:12:01.037Z,8.40
2017-04-08T01:13:00.310Z,8.40
2017-04-08T01:13:59.641Z,8.40
2017-04-08T01:14:58.901Z,8.40
2017-04-08T01:15:58.194Z,8.40
2017-04-08T01:16:57.521Z,8.40
2017-04-08T01:17:56.746Z,8.40
2017-04-08T01:18:56.738Z,8.40
2017-04-08T01:19:56.741Z,8.40
2017-04-08T01:20:56.005Z,8.40
2017-04-08T01:21:55.354Z,8.40
2017-04-08T01:22:54.637Z,8.40
2017-04-08T01:23:54.727Z,8.40
2017-04-08T01:24:53.997Z,8.40
2017-04-08T01:25:53.265Z,8.40
2017-04-08T01:26:52.534Z,8.40
2017-04-08T01:27:51.797Z,8.40
2017-04-08T01:28:51.799Z,8.40
2017-04-08T01:29:51.841Z,8.40
2017-04-08T01:30:51.119Z,8.40
2017-04-08T01:31:50.388Z,8.40
2017-04-08T01:32:50.429Z,8.40
2017-04-08T01:33:49.685Z,8.40
2017-04-08T01:34:49.677Z,8.40
2017-04-08T01:35:49.002Z,8.40
2017-04-08T01:36:49.017Z,8.40
2017-04-08T01:37:48.313Z,8.50
2017-04-08T01:38:47.609Z,8.50
2017-04-08T01:39:46.962Z,8.50
2017-04-08T01:40:46.241Z,8.50
2017-04-08T01:41:45.482Z,8.50
2017-04-08T01:42:44.725Z,8.50
2017-04-08T01:43:44.010Z,8.50
2017-04-08T01:44:43.245Z,8.50
2017-04-08T01:45:42.548Z,8.50
2017-04-08T01:46:41.889Z,8.50
2017-04-08T01:47:41.126Z,8.50
2017-04-08T01:48:40.373Z,8.50
2017-04-08T01:49:39.643Z,8.50
2017-04-08T01:50:38.919Z,8.50
2017-04-08T01:51:38.229Z,8.50
2017-04-08T01:52:37.504Z,8.50
2017-04-08T01:53:36.757Z,8.60
2017-04-08T01:54:36.267Z,8.50
2017-04-08T01:55:35.593Z,8.50
2017-04-08T01:56:34.929Z,8.50
2017-04-08T01:57:34.195Z,8.50
2017-04-08T01:58:34.184Z,8.50
2017-04-08T01:59:33.441Z,8.50
2017-04-08T02:00:32.767Z,8.50
2017-04-08T02:01:32.073Z,8.50
2017-04-08T02:02:32.292Z,8.60
2017-04-08T02:03:32.297Z,8.50
2017-04-08T02:04:32.321Z,8.60
2017-04-08T02:05:32.593Z,8.60
2017-04-08T02:07:31.324Z,8.60
2017-04-08T02:08:31.018Z,8.60
2017-04-08T02:09:31.007Z,8.60
2017-04-08T02:10:31.017Z,8.60
2017-04-08T02:11:31.058Z,8.60
2017-04-08T02:12:30.490Z,8.60
2017-04-08T02:13:29.767Z,8.60
2017-04-08T02:14:29.008Z,8.60
2017-04-08T02:15:28.268Z,8.60
2017-04-08T02:16:27.538Z,8.60
2017-04-08T02:17:26.909Z,8.60
2017-04-08T02:18:26.144Z,8.60
2017-04-08T02:19:25.406Z,8.60
2017-04-08T02:20:24.649Z,8.60
2017-04-08T02:21:24.694Z,8.60
2017-04-08T02:22:24.013Z,8.60
2017-04-08T02:23:23.638Z,8.60
2017-04-08T02:24:23.729Z,8.60
2017-04-08T02:25:22.972Z,8.60
2017-04-08T02:26:22.309Z,8.50
2017-04-08T02:27:21.587Z,8.50
2017-04-08T02:28:20.904Z,8.50
2017-04-08T02:29:20.165Z,8.50
2017-04-08T02:30:19.437Z,8.50
2017-04-08T02:31:18.689Z,8.50
2017-04-08T02:32:18.733Z,8.50
2017-04-08T02:33:17.983Z,8.50
2017-04-08T02:34:17.981Z,8.50
2017-04-08T02:35:18.295Z,8.50
2017-04-08T02:36:18.305Z,8.50
2017-04-08T02:37:18.438Z,8.50
2017-04-08T02:38:17.698Z,8.50
2017-04-08T02:39:16.957Z,8.40
2017-04-08T02:40:16.208Z,8.50
2017-04-08T02:41:15.498Z,8.50
2017-04-08T02:42:14.806Z,8.50
2017-04-08T02:43:14.182Z,8.50
2017-04-08T02:44:13.417Z,8.50
2017-04-08T02:45:12.725Z,8.50
2017-04-08T02:46:12.040Z,8.50
2017-04-08T02:47:12.143Z,8.50
2017-04-08T02:48:12.173Z,8.40
2017-04-08T02:49:11.428Z,8.40
2017-04-08T02:50:10.679Z,8.40
2017-04-08T02:51:09.923Z,8.40
2017-04-08T02:52:09.909Z,8.40
2017-04-08T02:53:09.409Z,8.50
2017-04-08T02:54:08.671Z,8.50
2017-04-08T02:55:07.943Z,8.50
2017-04-08T02:56:07.217Z,8.50
2017-04-08T02:57:06.468Z,8.50
2017-04-08T02:58:05.746Z,8.50
2017-04-08T02:59:05.192Z,8.40
2017-04-08T03:00:04.458Z,8.40
2017-04-08T03:01:04.563Z,8.40
2017-04-08T03:02:04.605Z,8.40
2017-04-08T03:03:03.955Z,8.40
2017-04-08T03:04:03.196Z,8.40
2017-04-08T03:05:02.486Z,8.40
2017-04-08T03:06:01.797Z,8.40
2017-04-08T03:07:01.089Z,8.40
2017-04-08T03:08:00.350Z,8.40
2017-04-08T03:08:59.590Z,8.40
2017-04-08T03:09:58.858Z,8.40
2017-04-08T03:10:58.573Z,8.40
2017-04-08T03:11:57.824Z,8.40
2017-04-08T03:12:57.077Z,8.40
2017-04-08T03:13:57.070Z,8.30
2017-04-08T03:14:56.315Z,8.40
2017-04-08T03:15:55.525Z,8.40
2017-04-08T03:16:55.054Z,8.40
2017-04-08T03:17:55.047Z,8.40
2017-04-08T03:18:54.295Z,8.40
2017-04-08T03:19:53.549Z,8.40
2017-04-08T03:20:53.573Z,8.40
2017-04-08T03:21:52.832Z,8.40
2017-04-08T03:22:52.134Z,8.40
2017-04-08T03:23:52.162Z,8.40
2017-04-08T03:24:51.459Z,8.40
2017-04-08T03:25:50.720Z,8.40
2017-04-08T03:26:50.816Z,8.40
2017-04-08T03:27:50.135Z,8.40
2017-04-08T03:28:50.144Z,8.40
2017-04-08T03:29:50.389Z,8.50
2017-04-08T03:30:49.634Z,8.40
2017-04-08T03:31:49.618Z,8.40
2017-04-08T03:32:48.869Z,8.40
2017-04-08T03:33:48.154Z,8.40
2017-04-08T03:34:47.688Z,8.50
2017-04-08T03:35:47.074Z,8.40
2017-04-08T03:36:46.321Z,8.40
2017-04-08T03:37:45.578Z,8.40
2017-04-08T03:38:44.829Z,8.40
2017-04-08T03:39:44.094Z,8.50
2017-04-08T03:40:43.369Z,8.40
2017-04-08T03:41:43.393Z,8.40
2017-04-08T03:42:42.649Z,8.40
2017-04-08T03:43:42.635Z,8.40
2017-04-08T03:44:41.935Z,8.40
2017-04-08T03:45:41.170Z,8.40
2017-04-08T03:46:40.474Z,8.30
2017-04-08T03:47:39.757Z,8.30
2017-04-08T03:48:38.997Z,8.30
2017-04-08T03:49:38.249Z,8.30
2017-04-08T03:50:37.481Z,8.30
2017-04-08T03:51:36.744Z,8.30
2017-04-08T03:52:36.359Z,8.20
2017-04-08T03:53:35.638Z,8.20
2017-04-08T03:54:34.917Z,8.30
2017-04-08T03:55:34.150Z,8.30
2017-04-08T03:56:34.143Z,8.20
2017-04-08T03:57:33.394Z,8.20
2017-04-08T03:58:32.674Z,8.20
2017-04-08T03:59:31.931Z,8.20
2017-04-08T04:00:31.989Z,8.20
2017-04-08T04:01:31.267Z,8.20
2017-04-08T04:02:30.538Z,8.20
2017-04-08T04:03:29.793Z,8.20
2017-04-08T04:04:29.083Z,8.20
2017-04-08T04:05:28.341Z,8.10
2017-04-08T04:06:27.584Z,8.10
2017-04-08T04:07:27.565Z,8.10
2017-04-08T04:08:26.807Z,8.20
2017-04-08T04:09:26.053Z,8.10
2017-04-08T04:10:25.633Z,8.10
2017-04-08T04:11:25.642Z,8.10
2017-04-08T04:12:24.877Z,8.10
2017-04-08T04:13:24.128Z,8.10
2017-04-08T04:14:23.383Z,8.10
2017-04-08T04:15:22.625Z,8.10
2017-04-08T04:16:22.721Z,8.10
2017-04-08T04:17:21.997Z,8.10
2017-04-08T04:18:21.301Z,8.10
2017-04-08T04:19:20.540Z,8.10
2017-04-08T04:20:19.843Z,8.10
2017-04-08T04:21:19.137Z,8.10
2017-04-08T04:22:18.514Z,8.10
2017-04-08T04:23:17.761Z,8.10
2017-04-08T04:24:17.013Z,8.10
2017-04-08T04:25:16.279Z,8.10
2017-04-08T04:26:15.520Z,8.10
2017-04-08T04:27:14.770Z,8.10
2017-04-08T04:28:14.298Z,8.10
2017-04-08T04:29:13.550Z,8.10
2017-04-08T04:30:12.822Z,8.10
2017-04-08T04:31:12.804Z,8.10
2017-04-08T04:32:12.789Z,8.10
2017-04-08T04:33:12.018Z,8.10
2017-04-08T04:34:12.105Z,8.10
2017-04-08T04:35:11.389Z,8.10
2017-04-08T04:36:10.678Z,8.10
2017-04-08T04:37:09.938Z,8.10
2017-04-08T04:38:09.211Z,8.10
2017-04-08T04:39:08.757Z,8.10
2017-04-08T04:40:08.038Z,8.10
2017-04-08T04:41:07.278Z,8.10
2017-04-08T04:42:06.532Z,8.10
2017-04-08T04:43:05.868Z,8.10
2017-04-08T04:44:05.148Z,8.20
2017-04-08T04:45:04.455Z,8.20
2017-04-08T04:46:03.991Z,8.10
2017-04-08T04:47:03.266Z,8.20
2017-04-08T04:48:02.509Z,8.10
2017-04-08T04:49:01.754Z,8.20
2017-04-08T04:50:01.014Z,8.20
2017-04-08T04:51:00.258Z,8.20
2017-04-08T04:52:00.570Z,8.10
2017-04-08T04:53:00.578Z,8.10
2017-04-08T04:54:00.585Z,8.10
2017-04-08T04:55:00.579Z,8.10
2017-04-08T04:55:59.832Z,8.10
2017-04-08T04:56:59.078Z,8.10
2017-04-08T04:57:59.394Z,8.00
2017-04-08T04:58:59.408Z,8.10
2017-04-08T04:59:59.417Z,8.10
2017-04-08T05:00:59.417Z,8.10
2017-04-08T05:01:59.414Z,8.10
2017-04-08T05:02:59.463Z,8.10
2017-04-08T05:03:58.821Z,8.10
2017-04-08T05:04:58.821Z,8.10
2017-04-08T05:05:58.066Z,8.10
2017-04-08T05:06:57.333Z,8.10
2017-04-08T05:07:56.586Z,8.10
2017-04-08T05:08:56.283Z,8.10
2017-04-08T05:09:55.542Z,8.10
2017-04-08T05:10:54.809Z,8.10
2017-04-08T05:11:54.058Z,8.20
2017-04-08T05:12:53.297Z,8.10
2017-04-08T05:13:52.558Z,8.20
2017-04-08T05:14:51.903Z,8.20
2017-04-08T05:15:51.141Z,8.20
2017-04-08T05:16:50.361Z,8.30
2017-04-08T05:17:49.594Z,8.30
2017-04-08T05:18:48.874Z,8.30
2017-04-08T05:19:48.133Z,8.30
2017-04-08T05:20:47.401Z,8.30
2017-04-08T05:21:46.663Z,8.30
2017-04-08T05:22:46.642Z,8.30
2017-04-08T05:23:45.891Z,8.40
2017-04-08T05:24:45.138Z,8.40
2017-04-08T05:25:44.373Z,8.40
2017-04-08T05:26:43.921Z,8.40
2017-04-08T05:27:43.174Z,8.40
2017-04-08T05:28:42.425Z,8.40
2017-04-08T05:29:42.579Z,8.40
2017-04-08T05:30:41.882Z,8.40
2017-04-08T05:31:41.146Z,8.40
2017-04-08T05:32:40.486Z,8.40
2017-04-08T05:33:39.724Z,8.40
2017-04-08T05:34:38.982Z,8.40
2017-04-08T05:35:39.035Z,8.40
2017-04-08T05:36:38.318Z,8.50
2017-04-08T05:37:37.573Z,8.50
2017-04-08T05:38:37.668Z,8.50
2017-04-08T05:39:37.602Z,8.50
2017-04-08T05:40:37.735Z,8.50
2017-04-08T05:41:37.112Z,8.50
2017-04-08T05:42:36.521Z,8.60
2017-04-08T05:43:35.779Z,8.60
2017-04-08T05:44:36.069Z,8.60
2017-04-08T05:45:35.302Z,8.70
2017-04-08T05:46:34.542Z,8.70
2017-04-08T05:47:33.774Z,8.70
2017-04-08T05:48:33.046Z,8.70
2017-04-08T05:49:33.105Z,8.80
2017-04-08T05:50:32.395Z,8.80
2017-04-08T05:51:31.649Z,8.80
2017-04-08T05:52:30.901Z,8.90
2017-04-08T05:53:30.152Z,8.90
2017-04-08T05:54:29.400Z,8.90
2017-04-08T05:55:29.407Z,8.90
2017-04-08T05:56:29.714Z,8.80
2017-04-08T05:57:29.777Z,8.80
2017-04-08T05:58:29.025Z,8.80
2017-04-08T05:59:29.046Z,8.90
2017-04-08T06:00:29.136Z,8.90
2017-04-08T06:01:29.194Z,8.90
2017-04-08T06:02:28.546Z,9.00
2017-04-08T06:03:28.539Z,9.00
2017-04-08T06:04:27.785Z,9.10
2017-04-08T06:05:27.066Z,9.10
2017-04-08T06:06:26.369Z,9.10
2017-04-08T06:07:25.620Z,9.10
2017-04-08T06:08:25.902Z,9.20
2017-04-08T06:09:25.152Z,9.20
2017-04-08T06:10:24.418Z,9.20
2017-04-08T06:11:23.689Z,9.30
2017-04-08T06:12:23.675Z,9.30
2017-04-08T06:13:22.929Z,9.30
2017-04-08T06:14:22.211Z,9.30
2017-04-08T06:15:21.506Z,9.40
2017-04-08T06:16:20.760Z,9.40
2017-04-08T06:17:20.825Z,9.30
2017-04-08T06:18:20.067Z,9.30
2017-04-08T06:19:20.094Z,9.30
2017-04-08T06:20:19.641Z,9.40
2017-04-08T06:21:18.897Z,9.40
2017-04-08T06:22:18.401Z,9.40
2017-04-08T06:23:17.648Z,9.40
2017-04-08T06:24:17.918Z,9.50
2017-04-08T06:25:17.162Z,9.60
2017-04-08T06:26:16.483Z,9.70
2017-04-08T06:27:15.757Z,9.70
2017-04-08T06:28:14.978Z,9.70
2017-04-08T06:29:14.235Z,9.80
2017-04-08T06:30:13.475Z,9.90
2017-04-08T06:31:12.741Z,9.90
2017-04-08T06:32:12.361Z,10.00
2017-04-08T06:33:11.614Z,10.00
2017-04-08T06:34:10.864Z,10.00
2017-04-08T06:35:10.935Z,10.00
2017-04-08T06:36:10.883Z,10.10
2017-04-08T06:37:11.051Z,10.10
2017-04-08T06:38:10.367Z,10.10
2017-04-08T06:39:10.377Z,10.10
2017-04-08T06:40:10.353Z,10.10
2017-04-08T06:41:09.617Z,10.10
2017-04-08T06:42:08.861Z,10.10
2017-04-08T06:43:08.850Z,10.10
2017-04-08T06:44:08.134Z,10.10
2017-04-08T06:45:07.402Z,10.00
2017-04-08T06:46:06.673Z,10.00
2017-04-08T06:47:05.922Z,10.00
2017-04-08T06:48:05.174Z,10.10
2017-04-08T06:49:04.445Z,10.10
2017-04-08T06:50:03.784Z,10.10
2017-04-08T06:51:03.052Z,10.20
2017-04-08T06:52:02.293Z,10.20
2017-04-08T06:53:02.277Z,10.30
2017-04-08T06:54:01.500Z,10.40
2017-04-08T06:55:01.506Z,10.40
2017-04-08T06:56:01.534Z,10.50
2017-04-08T06:57:00.815Z,10.60
2017-04-08T06:58:00.064Z,10.60
2017-04-08T06:58:59.314Z,10.60
2017-04-08T06:59:58.586Z,10.70
2017-04-08T07:00:57.981Z,10.80
2017-04-08T07:01:57.470Z,10.80
2017-04-08T07:02:56.742Z,10.90
2017-04-08T07:03:56.811Z,11.00
2017-04-08T07:04:56.072Z,11.10
2017-04-08T07:05:55.425Z,11.10
2017-04-08T07:06:55.505Z,11.20
2017-04-08T07:07:54.805Z,11.40
2017-04-08T07:08:54.061Z,11.40
2017-04-08T07:09:53.349Z,11.50
2017-04-08T07:10:52.603Z,11.60
2017-04-08T07:11:52.651Z,11.60
2017-04-08T07:12:51.906Z,11.70
2017-04-08T07:13:52.190Z,11.60
2017-04-08T07:14:51.498Z,11.70
2017-04-08T07:15:51.609Z,11.80
2017-04-08T07:16:51.609Z,11.80
2017-04-08T07:17:50.877Z,11.90
2017-04-08T07:18:50.126Z,12.00
2017-04-08T07:19:49.414Z,12.00
2017-04-08T07:20:48.690Z,12.10
2017-04-08T07:21:48.786Z,12.00
2017-04-08T07:22:48.805Z,12.00
2017-04-08T07:23:48.798Z,12.00
2017-04-08T07:24:48.802Z,12.10
2017-04-08T07:25:49.107Z,12.10
2017-04-08T07:26:48.354Z,12.00
2017-04-08T07:27:47.609Z,12.00
2017-04-08T07:28:47.654Z,12.10
2017-04-08T07:29:49.602Z,12.20
2017-04-08T07:30:48.915Z,12.30
2017-04-08T07:31:48.383Z,12.40
2017-04-08T07:32:47.641Z,12.30
2017-04-08T07:33:47.698Z,12.20
2017-04-08T07:34:47.011Z,12.30
2017-04-08T07:35:46.317Z,12.30
2017-04-08T07:36:45.703Z,12.30
2017-04-08T07:37:44.987Z,12.40
2017-04-08T07:38:44.231Z,12.50
2017-04-08T07:39:43.589Z,12.60
2017-04-08T07:40:43.616Z,12.80
2017-04-08T07:41:43.689Z,12.80
2017-04-08T07:42:42.987Z,12.90
2017-04-08T07:43:42.227Z,13.10
2017-04-08T07:44:41.506Z,13.20
2017-04-08T07:45:40.801Z,13.30
2017-04-08T07:46:40.082Z,13.40
2017-04-08T07:47:40.134Z,13.30
2017-04-08T07:48:39.445Z,13.30
2017-04-08T07:49:38.801Z,13.30
2017-04-08T07:50:38.173Z,13.40
2017-04-08T07:51:37.476Z,13.50
2017-04-08T07:52:36.755Z,13.40
2017-04-08T07:53:36.025Z,13.40
2017-04-08T07:54:36.113Z,13.50
2017-04-08T07:55:35.392Z,13.60
2017-04-08T07:56:34.657Z,13.70
2017-04-08T07:57:33.922Z,13.70
2017-04-08T07:58:33.182Z,13.80
2017-04-08T07:59:32.656Z,13.70
2017-04-08T08:00:31.905Z,13.70
2017-04-08T08:01:31.174Z,13.70
2017-04-08T08:02:31.196Z,13.80
2017-04-08T08:03:30.466Z,13.90
2017-04-08T08:04:30.487Z,13.90
2017-04-08T08:05:30.507Z,14.10
2017-04-08T08:06:29.757Z,14.20
2017-04-08T08:07:29.017Z,14.40
2017-04-08T08:08:28.427Z,14.60
2017-04-08T08:09:27.745Z,14.90
2017-04-08T08:10:27.774Z,15.10
2017-04-08T08:11:27.115Z,15.30
2017-04-08T08:12:26.386Z,15.60
2017-04-08T08:13:25.647Z,15.70
2017-04-08T08:14:24.924Z,15.80
2017-04-08T08:15:24.187Z,15.90
2017-04-08T08:16:23.508Z,16.10
2017-04-08T08:17:22.777Z,16.30
2017-04-08T08:18:22.016Z,16.40
2017-04-08T08:19:21.334Z,16.60
2017-04-08T08:20:20.609Z,16.70
2017-04-08T08:21:19.886Z,16.90
2017-04-08T08:22:19.638Z,17.00
2017-04-08T08:23:18.978Z,16.90
2017-04-08T08:24:18.255Z,16.60
2017-04-08T08:25:17.502Z,16.30
2017-04-08T08:26:16.757Z,16.00
2017-04-08T08:27:16.038Z,16.00
2017-04-08T08:28:15.369Z,16.00
2017-04-08T08:29:14.681Z,15.90
2017-04-08T08:30:14.721Z,16.00
2017-04-08T08:31:14.077Z,16.20
2017-04-08T08:32:13.354Z,16.10
2017-04-08T08:33:12.701Z,16.10
2017-04-08T08:34:12.377Z,16.00
2017-04-08T08:35:11.634Z,16.10
2017-04-08T08:36:10.967Z,16.30
2017-04-08T08:37:10.245Z,16.50
2017-04-08T08:38:10.771Z,16.70
2017-04-08T08:39:10.075Z,17.10
2017-04-08T08:40:09.378Z,17.50
2017-04-08T08:41:08.665Z,18.00
2017-04-08T08:42:07.983Z,18.30
2017-04-08T08:43:07.280Z,18.50
2017-04-08T08:44:06.546Z,18.70
2017-04-08T08:45:05.978Z,18.80
2017-04-08T08:46:06.139Z,18.80
2017-04-08T08:47:05.444Z,18.80
2017-04-08T08:48:04.740Z,19.00
2017-04-08T08:49:04.256Z,19.30
2017-04-08T08:50:03.643Z,19.50
2017-04-08T08:51:03.023Z,19.80
2017-04-08T08:52:02.312Z,20.00
2017-04-08T08:53:01.570Z,20.10
2017-04-08T08:54:00.918Z,20.30
2017-04-08T08:55:00.204Z,20.30
2017-04-08T08:55:59.489Z,20.40
2017-04-08T08:56:58.789Z,20.10
2017-04-08T08:57:58.095Z,20.20
2017-04-08T08:58:57.416Z,20.30
2017-04-08T08:59:56.729Z,20.50
2017-04-08T09:00:56.002Z,20.70
2017-04-08T09:01:55.314Z,20.60
2017-04-08T09:02:54.598Z,20.20
2017-04-08T09:03:53.847Z,19.70
2017-04-08T09:04:53.856Z,19.60
2017-04-08T09:05:54.039Z,19.50
2017-04-08T09:06:53.565Z,19.20
2017-04-08T09:07:53.587Z,19.00
2017-04-08T09:08:53.162Z,18.70
2017-04-08T09:09:53.175Z,18.50
2017-04-08T09:10:53.230Z,18.70
2017-04-08T09:11:52.555Z,18.80
2017-04-08T09:12:51.809Z,18.90
2017-04-08T09:13:51.077Z,18.80
2017-04-08T09:14:50.394Z,18.50
2017-04-08T09:15:49.639Z,18.40
2017-04-08T09:16:49.923Z,18.40
2017-04-08T09:17:49.170Z,18.20
2017-04-08T09:18:48.494Z,18.10
2017-04-08T09:19:47.764Z,18.20
2017-04-08T09:20:47.299Z,18.40
2017-04-08T09:21:46.581Z,18.00
2017-04-08T09:22:45.938Z,18.00
2017-04-08T09:23:45.206Z,18.00
2017-04-08T09:24:44.466Z,18.00
2017-04-08T09:25:43.925Z,17.90
2017-04-08T09:26:43.302Z,17.90
2017-04-08T09:27:42.595Z,18.00
2017-04-08T09:28:42.106Z,18.20
2017-04-08T09:29:41.375Z,18.50
2017-04-08T09:30:40.713Z,18.50
2017-04-08T09:31:39.977Z,18.50
2017-04-08T09:32:39.604Z,18.50
2017-04-08T09:33:38.927Z,18.60
2017-04-08T09:34:39.069Z,18.80
2017-04-08T09:35:38.318Z,19.00
2017-04-08T09:36:38.582Z,19.00
2017-04-08T09:37:37.872Z,18.80
2017-04-08T09:38:37.159Z,18.60
2017-04-08T09:39:36.428Z,18.30
2017-04-08T09:40:35.682Z,18.00
2017-04-08T09:41:35.697Z,17.80
2017-04-08T09:42:35.818Z,17.60
2017-04-08T09:43:35.826Z,17.60
2017-04-08T09:44:36.113Z,17.50
2017-04-08T09:45:35.377Z,17.50
2017-04-08T09:46:34.667Z,17.60
2017-04-08T09:47:34.227Z,17.80
2017-04-08T09:48:33.491Z,18.20
2017-04-08T09:49:34.036Z,18.50
2017-04-08T09:50:33.514Z,18.70
2017-04-08T09:51:33.590Z,18.90
2017-04-08T09:52:32.935Z,19.20
2017-04-08T09:53:32.375Z,19.10
2017-04-08T09:55:31.326Z,19.10
2017-04-08T09:56:30.826Z,19.00
2017-04-08T09:57:30.147Z,18.90
2017-04-08T09:58:29.394Z,18.70
2017-04-08T09:59:28.650Z,18.40
2017-04-08T10:00:28.013Z,18.10
2017-04-08T10:01:27.416Z,18.00
2017-04-08T10:02:27.065Z,17.80
2017-04-08T10:03:26.716Z,17.60
2017-04-08T10:04:26.011Z,17.60
2017-04-08T10:05:25.489Z,17.60
2017-04-08T10:06:25.016Z,17.80
2017-04-08T10:07:24.516Z,17.90
2017-04-08T10:08:24.633Z,18.00
2017-04-08T10:09:24.701Z,18.00
2017-04-08T10:10:23.959Z,18.20
2017-04-08T10:11:23.269Z,18.30
2017-04-08T10:12:22.542Z,18.40
2017-04-08T10:13:21.790Z,18.60
2017-04-08T10:14:21.634Z,19.00
2017-04-08T10:15:20.901Z,19.10
2017-04-08T10:16:20.925Z,18.90
2017-04-08T10:17:20.185Z,18.70
2017-04-08T10:18:20.229Z,18.10
2017-04-08T10:19:19.486Z,17.70
2017-04-08T10:20:19.782Z,17.20
2017-04-08T10:21:19.034Z,16.80
2017-04-08T10:22:18.609Z,16.60
2017-04-08T10:23:17.879Z,16.40
2017-04-08T10:24:17.136Z,16.40
2017-04-08T10:25:16.402Z,16.30
2017-04-08T10:26:15.954Z,16.10
2017-04-08T10:27:15.221Z,15.90
2017-04-08T10:28:14.515Z,15.70
2017-04-08T10:29:13.783Z,15.70
2017-04-08T10:30:13.057Z,15.90
2017-04-08T10:31:12.326Z,16.10
2017-04-08T10:32:12.811Z,16.20
2017-04-08T10:33:12.106Z,16.30
2017-04-08T10:34:11.346Z,16.50
2017-04-08T10:35:10.608Z,16.70
2017-04-08T10:36:10.609Z,16.90
2017-04-08T10:37:10.811Z,17.30
2017-04-08T10:38:10.401Z,17.60
2017-04-08T10:39:09.657Z,17.90
2017-04-08T10:40:08.974Z,18.00
2017-04-08T10:41:08.231Z,18.30
2017-04-08T10:42:07.648Z,18.60
2017-04-08T10:43:06.917Z,19.00
2017-04-08T10:44:06.426Z,19.50
2017-04-08T10:45:05.727Z,19.80
2017-04-08T10:46:04.976Z,20.00
2017-04-08T10:47:04.242Z,20.20
2017-04-08T10:48:04.303Z,20.20
2017-04-08T10:49:03.582Z,20.40
2017-04-08T10:50:02.909Z,20.80
2017-04-08T10:51:02.189Z,21.10
2017-04-08T10:52:01.445Z,21.20
2017-04-08T10:53:00.744Z,21.40
2017-04-08T10:54:00.017Z,21.70
2017-04-08T10:54:59.278Z,22.00
2017-04-08T10:55:59.572Z,22.00
2017-04-08T10:56:58.835Z,22.00
2017-04-08T10:57:58.102Z,22.10
2017-04-08T10:58:57.375Z,22.10
2017-04-08T10:59:57.414Z,22.10
2017-04-08T11:00:56.676Z,21.80
2017-04-08T11:01:56.928Z,21.40
2017-04-08T11:02:56.179Z,21.20
2017-04-08T11:03:56.176Z,21.20
2017-04-08T11:04:56.170Z,21.30
2017-04-08T11:05:56.222Z,21.40
2017-04-08T11:06:55.477Z,21.50
2017-04-08T11:07:55.627Z,21.60
2017-04-08T11:08:54.869Z,21.70
2017-04-08T11:09:54.868Z,21.70
2017-04-08T11:10:54.101Z,21.80
2017-04-08T11:11:53.348Z,22.10
2017-04-08T11:12:52.609Z,22.40
2017-04-08T11:13:51.877Z,22.40
2017-04-08T11:14:51.176Z,22.60
2017-04-08T11:15:50.478Z,22.60
2017-04-08T11:16:49.751Z,22.60
2017-04-08T11:17:49.049Z,22.70
2017-04-08T11:18:48.322Z,22.70
2017-04-08T11:19:47.874Z,22.70
2017-04-08T11:20:47.146Z,22.60
2017-04-08T11:21:46.417Z,22.50
2017-04-08T11:22:46.414Z,22.60
2017-04-08T11:23:45.677Z,22.60
2017-04-08T11:24:45.686Z,22.50
2017-04-08T11:25:45.746Z,22.50
2017-04-08T11:26:45.753Z,22.30
2017-04-08T11:27:45.006Z,22.00
2017-04-08T11:28:44.270Z,21.90
2017-04-08T11:29:44.262Z,21.70
2017-04-08T11:30:43.578Z,20.70
2017-04-08T11:31:43.869Z,20.30
2017-04-08T11:32:43.138Z,20.30
2017-04-08T11:33:42.395Z,20.00
2017-04-08T11:34:41.665Z,19.60
2017-04-08T11:35:42.084Z,19.20
2017-04-08T11:36:41.399Z,19.20
2017-04-08T11:37:40.692Z,19.40
2017-04-08T11:38:40.037Z,19.70
2017-04-08T11:39:39.293Z,20.20
2017-04-08T11:40:38.680Z,20.60
2017-04-08T11:41:37.934Z,20.90
2017-04-08T11:42:37.999Z,21.30
2017-04-08T11:43:37.289Z,21.70
2017-04-08T11:44:36.537Z,22.10
2017-04-08T11:45:35.844Z,22.40
2017-04-08T11:46:35.159Z,22.50
2017-04-08T11:47:34.665Z,22.40
2017-04-08T11:48:33.930Z,22.60
2017-04-08T11:49:33.681Z,22.80
2017-04-08T11:50:33.708Z,23.10
2017-04-08T11:51:32.965Z,23.20
2017-04-08T11:52:32.208Z,23.40
2017-04-08T11:53:31.476Z,23.60
2017-04-08T11:54:30.726Z,23.60
2017-04-08T11:55:30.334Z,23.50
2017-04-08T11:56:29.596Z,23.40
2017-04-08T11:57:28.867Z,23.30
2017-04-08T11:58:28.122Z,23.30
2017-04-08T11:59:28.117Z,23.30
2017-04-08T12:00:28.146Z,23.30
2017-04-08T12:01:27.434Z,23.40
2017-04-08T12:02:26.713Z,23.70
2017-04-08T12:03:26.875Z,23.80
2017-04-08T12:04:26.129Z,23.80
2017-04-08T12:05:25.429Z,23.50
2017-04-08T12:06:24.709Z,23.20
2017-04-08T12:07:24.238Z,22.90
2017-04-08T12:08:23.718Z,22.30
2017-04-08T12:09:22.966Z,22.00
2017-04-08T12:10:23.115Z,22.20
2017-04-08T12:11:22.700Z,22.40
2017-04-08T12:12:21.946Z,22.40
2017-04-08T12:13:21.555Z,22.30
2017-04-08T12:14:20.850Z,22.40
2017-04-08T12:15:20.122Z,22.60
2017-04-08T12:16:19.389Z,22.80
2017-04-08T12:17:18.657Z,22.60
2017-04-08T12:18:17.942Z,22.50
2017-04-08T12:19:17.305Z,22.50
2017-04-08T12:20:17.390Z,22.60
2017-04-08T12:21:16.638Z,22.70
2017-04-08T12:22:15.885Z,22.90
2017-04-08T12:23:15.146Z,23.10
2017-04-08T12:24:14.411Z,23.30
2017-04-08T12:25:14.058Z,23.40
2017-04-08T12:26:13.361Z,23.40
2017-04-08T12:27:12.637Z,23.50
2017-04-08T12:28:11.896Z,23.50
2017-04-08T12:29:11.174Z,23.60
2017-04-08T12:30:10.425Z,23.60
2017-04-08T12:31:09.713Z,23.20
2017-04-08T12:32:08.989Z,23.30
2017-04-08T12:33:08.227Z,23.30
2017-04-08T12:34:07.482Z,23.30
2017-04-08T12:35:07.495Z,23.20
2017-04-08T12:36:07.490Z,23.40
2017-04-08T12:37:07.090Z,23.50
2017-04-08T12:38:06.379Z,23.60
2017-04-08T12:39:05.768Z,23.60
2017-04-08T12:40:05.026Z,23.70
2017-04-08T12:41:04.377Z,23.60
2017-04-08T12:42:04.362Z,23.60
2017-04-08T12:43:03.948Z,23.80
2017-04-08T12:44:03.529Z,23.90
2017-04-08T12:45:02.790Z,24.00
2017-04-08T12:46:02.032Z,24.00
2017-04-08T12:47:01.289Z,24.00
2017-04-08T12:48:00.550Z,24.10
2017-04-08T12:48:59.801Z,24.10
2017-04-08T12:49:59.060Z,24.20
2017-04-08T12:50:58.308Z,24.30
2017-04-08T12:51:58.308Z,24.20
2017-04-08T12:52:58.315Z,24.20
2017-04-08T12:53:58.333Z,24.20
2017-04-08T12:54:57.894Z,24.20
2017-04-08T12:55:57.214Z,24.20
2017-04-08T12:56:57.231Z,24.10
2017-04-08T12:57:57.222Z,24.00
2017-04-08T12:58:57.557Z,24.00
2017-04-08T12:59:56.907Z,24.00
2017-04-08T13:00:56.907Z,23.80